Time;durP1;ratioP1;P1;durP2;ratioP2;P2;SDS_P1;SDS_P2;PMS_P1;PMS_P2;Temp;Humidity;BMP_temperature;BMP_pressure;BME280_temperature;BME280_humidity;BME280_pressure;Samples;Min_cycle;Max_cycle;Signal;HPM_P1;HPM_P2
2022/06/26 00:00:25;;;;;;;5.05;1.58;;;;;;;27.91;31.81;100937.03;5048025;28;20057;-81
2022/06/26 00:02:51;;;;;;;3.65;2.30;;;;;;;27.38;31.88;100859.03;5030147;28;20300;-81
2022/06/26 00:05:18;;;;;;;2.65;1.63;;;;;;;27.89;31.94;100933.72;5030379;28;20557;-81
2022/06/26 00:07:45;;;;;;;5.15;2.10;;;;;;;27.86;32.04;100934.16;5048232;28;20053;-81
2022/06/26 00:10:13;;;;;;;3.38;1.75;;;;;;;27.82;32.21;100945.81;5030298;28;20122;-81
2022/06/26 00:12:39;;;;;;;3.75;1.88;;;;;;;27.38;32.67;100871.81;5030328;28;20094;-81
2022/06/26 00:15:07;;;;;;;5.00;1.77;;;;;;;27.69;32.61;100930.53;5030031;28;20083;-81
2022/06/26 00:17:33;;;;;;;3.58;2.00;;;;;;;27.52;32.83;100907.81;5030269;28;20052;-81
2022/06/26 00:20:00;;;;;;;5.38;1.92;;;;;;;27.54;32.96;100930.22;5029979;28;20044;-80
2022/06/26 00:22:30;;;;;;;4.25;2.25;;;;;;;26.90;32.88;100835.66;5030259;28;20430;-79
2022/06/26 00:25:01;;;;;;;3.17;2.05;;;;;;;27.41;33.18;100920.44;5048393;28;20467;-82
2022/06/26 00:27:28;;;;;;;7.88;2.10;;;;;;;27.43;33.35;100931.91;5032430;28;20040;-80
2022/06/26 00:30:19;;;;;;;4.05;2.13;;;;;;;27.56;33.63;100947.19;5031855;28;20591;-80
2022/06/26 00:32:48;;;;;;;3.60;2.22;;;;;;;26.28;33.62;100748.19;5030381;28;20446;-81
2022/06/26 00:35:17;;;;;;;7.72;2.60;;;;;;;27.12;34.01;100884.06;5032214;28;20052;-79
2022/06/26 00:37:44;;;;;;;7.00;1.70;;;;;;;27.43;33.76;100935.47;5031091;28;20044;-79
2022/06/26 00:40:11;;;;;;;3.65;1.92;;;;;;;27.51;33.76;100947.91;5029955;28;20098;-81
2022/06/26 00:42:40;;;;;;;6.85;2.53;;;;;;;27.10;34.02;100875.31;5030105;28;20049;-81
2022/06/26 00:45:10;;;;;;;6.47;2.65;;;;;;;26.72;34.13;100814.00;5030519;28;20048;-81
2022/06/26 00:47:41;;;;;;;3.58;2.13;;;;;;;27.38;34.58;100920.88;5012811;28;20275;-80
2022/06/26 00:50:08;;;;;;;3.97;2.00;;;;;;;27.32;34.53;100916.41;5030537;28;20301;-80
2022/06/26 00:52:37;;;;;;;6.25;2.20;;;;;;;26.49;34.73;100776.72;5031445;28;20483;-81
2022/06/26 00:55:04;;;;;;;5.85;2.20;;;;;;;27.41;34.87;100937.59;5031765;28;20429;-80
2022/06/26 00:57:33;;;;;;;5.45;2.55;;;;;;;27.21;34.75;100901.72;5049584;28;20060;-81
2022/06/26 01:00:01;;;;;;;7.60;2.45;;;;;;;27.14;35.18;100898.25;5029599;28;20496;-81
2022/06/26 01:02:27;;;;;;;5.65;2.35;;;;;;;27.39;35.16;100944.38;5028780;28;20057;-80
2022/06/26 01:04:57;;;;;;;4.57;1.75;;;;;;;27.45;35.12;100955.16;5047260;28;20136;-81
2022/06/26 01:07:25;;;;;;;10.93;2.38;;;;;;;27.06;35.33;100886.69;5029196;28;20049;-79
2022/06/26 01:09:52;;;;;;;7.97;2.28;;;;;;;27.33;35.64;100940.69;5029409;28;20056;-80
2022/06/26 01:12:18;;;;;;;6.13;2.38;;;;;;;27.42;35.46;100954.78;5028911;28;20583;-81
2022/06/26 01:14:46;;;;;;;8.65;3.00;;;;;;;26.69;35.06;100817.19;5029614;28;20045;-81
2022/06/26 01:17:13;;;;;;;4.95;1.95;;;;;;;27.41;35.46;100948.50;5029065;28;20056;-81
2022/06/26 01:19:40;;;;;;;9.63;2.70;;;;;;;26.70;35.62;100846.94;5046870;28;20056;-80
2022/06/26 01:22:08;;;;;;;5.70;2.42;;;;;;;27.35;36.19;100948.63;5029118;28;20044;-81
2022/06/26 01:24:34;;;;;;;5.32;2.05;;;;;;;27.19;36.16;100922.97;5029642;28;20332;-81
2022/06/26 01:27:01;;;;;;;10.43;2.65;;;;;;;27.38;35.62;100949.00;5029058;28;20442;-81
2022/06/26 01:29:28;;;;;;;8.07;2.88;;;;;;;27.33;36.04;100945.31;5046388;28;20055;-80
2022/06/26 01:31:55;;;;;;;7.35;2.63;;;;;;;26.72;35.98;100819.44;5028985;28;20566;-81
2022/06/26 01:34:22;;;;;;;5.25;2.05;;;;;;;27.30;36.26;100927.53;5046719;28;20049;-80
2022/06/26 01:36:49;;;;;;;8.13;2.38;;;;;;;27.16;36.60;100907.03;5046938;28;20061;-80
2022/06/26 01:39:18;;;;;;;4.60;2.45;;;;;;;27.12;36.70;100897.69;5019005;28;20134;-80
2022/06/26 01:41:45;;;;;;;8.30;2.60;;;;;;;27.14;36.94;100906.44;4989866;28;20045;-81
2022/06/26 01:44:12;;;;;;;5.75;2.58;;;;;;;27.28;37.07;100940.56;4991694;28;20119;-80
2022/06/26 01:46:38;;;;;;;6.25;2.30;;;;;;;27.27;36.94;100936.22;5010903;28;20054;-82
2022/06/26 01:49:05;;;;;;;4.95;2.42;;;;;;;27.28;37.09;100941.44;4993810;28;20500;-81
2022/06/26 01:51:32;;;;;;;7.25;2.53;;;;;;;27.26;37.43;100946.28;5011983;28;20113;-80
2022/06/26 01:53:59;;;;;;;9.25;2.92;;;;;;;27.00;37.63;100914.88;5034793;28;20057;-82
2022/06/26 01:56:28;;;;;;;7.75;3.08;;;;;;;27.26;37.29;100948.19;5042212;28;20053;-82
2022/06/26 01:58:55;;;;;;;10.32;2.67;;;;;;;27.22;37.80;100950.53;5060658;28;20316;-81
2022/06/26 02:01:22;;;;;;;8.40;2.85;;;;;;;27.21;37.45;100940.72;5056636;28;20045;-81
2022/06/26 02:03:49;;;;;;;4.40;2.53;;;;;;;27.30;37.49;100943.91;5039531;28;20479;-81
2022/06/26 02:06:15;;;;;;;7.85;2.55;;;;;;;27.36;37.37;100936.69;5053680;28;20080;-81
2022/06/26 02:08:42;;;;;;;16.67;2.67;;;;;;;27.14;37.72;100903.72;5050201;28;20052;-81
2022/06/26 02:13:55;;;;;;;6.78;2.83;;;;;;;27.44;37.22;100937.13;5050033;28;20049;-81
2022/06/26 02:16:26;;;;;;;7.75;2.80;;;;;;;26.90;37.58;100857.44;5031884;28;20045;-80
2022/06/26 02:18:56;;;;;;;7.13;2.22;;;;;;;27.30;38.35;100934.91;5032119;28;20076;-81
2022/06/26 02:21:28;;;;;;;7.07;3.03;;;;;;;27.33;37.99;100940.69;5031552;28;20462;-81
2022/06/26 02:23:56;;;;;;;4.43;2.70;;;;;;;27.25;38.31;100932.88;5050182;28;20256;-80
2022/06/26 02:26:23;;;;;;;7.88;2.83;;;;;;;27.31;37.93;100937.41;5049140;28;20132;-81
2022/06/26 02:28:51;;;;;;;7.03;2.72;;;;;;;27.14;38.21;100920.06;5048001;28;20106;-80
2022/06/26 02:31:18;;;;;;;6.68;2.65;;;;;;;27.14;38.40;100926.38;5031899;28;20136;-81
2022/06/26 02:33:44;;;;;;;10.63;2.70;;;;;;;27.05;38.36;100912.25;5049338;28;20044;-81
2022/06/26 02:36:11;;;;;;;11.18;2.65;;;;;;;27.15;38.76;100929.91;5049425;28;20049;-80
2022/06/26 02:38:38;;;;;;;8.73;3.00;;;;;;;27.06;38.79;100933.00;5049218;28;20142;-80
2022/06/26 02:41:05;;;;;;;8.68;3.15;;;;;;;27.08;39.17;100954.56;5031534;28;20102;-80
2022/06/26 02:43:33;;;;;;;9.32;3.13;;;;;;;27.02;38.96;100940.00;5031831;28;20045;-81
2022/06/26 02:46:00;;;;;;;9.32;3.25;;;;;;;27.13;38.78;100951.94;5031875;28;20369;-81
2022/06/26 02:48:27;;;;;;;14.48;3.35;;;;;;;26.96;39.49;100951.81;5032545;28;20056;-79
2022/06/26 02:50:54;;;;;;;9.38;3.05;;;;;;;26.76;39.62;100918.69;5033463;28;20119;-81
2022/06/26 02:53:21;;;;;;;8.52;2.97;;;;;;;26.89;39.59;100950.28;5050996;28;20426;-80
2022/06/26 02:55:48;;;;;;;7.82;3.05;;;;;;;27.08;39.19;100971.72;5031578;28;20144;-78
2022/06/26 02:58:14;;;;;;;6.07;2.85;;;;;;;27.10;39.64;100968.78;5038081;28;20457;-81
2022/06/26 03:00:41;;;;;;;7.60;2.50;;;;;;;27.10;39.43;100973.41;5049523;28;20049;-82
2022/06/26 03:03:08;;;;;;;8.43;2.97;;;;;;;26.67;39.58;100903.75;5041602;28;20053;-80
2022/06/26 03:05:36;;;;;;;10.40;3.22;;;;;;;27.07;39.57;100971.97;5055517;28;20045;-80
2022/06/26 03:08:03;;;;;;;12.13;2.75;;;;;;;27.02;39.60;100961.78;5033281;28;20052;-80
2022/06/26 03:10:30;;;;;;;8.45;3.35;;;;;;;26.93;39.69;100952.31;5031460;28;20245;-81
2022/06/26 03:12:56;;;;;;;7.32;3.10;;;;;;;26.97;39.83;100969.84;5047793;28;20045;-81
2022/06/26 03:15:23;;;;;;;9.40;3.05;;;;;;;26.73;39.74;100932.78;5047692;28;20037;-82
2022/06/26 03:17:50;;;;;;;6.13;2.67;;;;;;;26.93;39.83;100976.81;5048915;28;20049;-80
2022/06/26 03:20:18;;;;;;;9.13;2.92;;;;;;;25.98;40.19;100825.28;5030863;28;20119;-80
2022/06/26 03:22:46;;;;;;;9.15;3.08;;;;;;;26.70;39.98;100957.72;5031162;28;20061;-81
2022/06/26 03:25:13;;;;;;;9.80;2.97;;;;;;;26.45;40.14;100920.59;5031189;28;20483;-80
2022/06/26 03:27:40;;;;;;;7.28;3.20;;;;;;;26.19;40.40;100879.16;5030434;28;20141;-80
2022/06/26 03:30:09;;;;;;;8.68;3.03;;;;;;;26.74;40.15;100981.53;5048696;28;20088;-79
2022/06/26 03:32:36;;;;;;;8.23;2.42;;;;;;;26.80;40.48;100996.13;5030562;28;20053;-80
2022/06/26 03:35:03;;;;;;;10.88;3.08;;;;;;;26.61;40.36;100966.25;5048888;28;20056;-80
2022/06/26 03:37:30;;;;;;;10.82;3.13;;;;;;;26.32;40.88;100934.44;5048469;28;20075;-81
2022/06/26 03:39:57;;;;;;;3.40;2.42;;;;;;;26.57;40.84;100991.44;5015507;28;20484;-80
2022/06/26 03:42:24;;;;;;;10.90;2.92;;;;;;;26.44;40.78;100978.84;4991103;28;20045;-81
2022/06/26 03:44:51;;;;;;;9.50;3.35;;;;;;;26.48;41.37;100992.81;5007128;28;20459;-80
2022/06/26 03:47:17;;;;;;;8.30;2.78;;;;;;;26.13;41.72;100952.72;5007515;28;20050;-80
2022/06/26 03:49:44;;;;;;;6.32;3.47;;;;;;;26.30;41.82;100985.53;5007342;28;20060;-81
2022/06/26 03:52:11;;;;;;;8.10;2.88;;;;;;;26.38;41.72;100998.81;5007706;28;20398;-80
2022/06/26 03:54:37;;;;;;;7.28;3.05;;;;;;;26.27;41.98;100984.13;5048141;28;20235;-80
2022/06/26 03:57:04;;;;;;;8.23;3.15;;;;;;;26.21;42.44;100974.13;5030694;28;20502;-81
2022/06/26 03:59:33;;;;;;;7.57;3.30;;;;;;;26.23;43.08;100989.16;5030430;28;20076;-79
2022/06/26 04:01:59;;;;;;;7.35;2.85;;;;;;;26.25;42.64;100997.13;5029287;28;20068;-80
2022/06/26 04:04:26;;;;;;;8.10;3.58;;;;;;;25.74;42.76;100923.06;5030966;28;20106;-80
2022/06/26 04:06:53;;;;;;;6.50;2.85;;;;;;;25.96;42.80;100966.13;5031747;28;20292;-81
2022/06/26 04:09:20;;;;;;;5.55;2.97;;;;;;;26.12;43.51;100998.13;5033186;28;20075;-80
2022/06/26 04:11:46;;;;;;;11.18;3.05;;;;;;;26.15;43.58;101008.56;5034160;28;20049;-81
2022/06/26 04:14:13;;;;;;;8.50;2.92;;;;;;;25.56;43.81;100923.09;5055872;28;20052;-80
2022/06/26 04:16:40;;;;;;;7.78;2.78;;;;;;;26.12;44.13;101017.19;5038042;28;20277;-81
2022/06/26 04:19:06;;;;;;;6.35;2.88;;;;;;;25.94;44.54;100988.09;5035544;28;20140;-80
2022/06/26 04:21:35;;;;;;;11.15;3.47;;;;;;;26.03;44.69;101015.84;5032859;28;20495;-81
2022/06/26 04:24:01;;;;;;;7.47;3.03;;;;;;;25.85;44.78;100983.16;5049091;28;20052;-82
2022/06/26 04:26:28;;;;;;;7.60;2.92;;;;;;;26.19;44.24;101034.25;5029685;28;20379;-80
2022/06/26 04:28:54;;;;;;;9.82;3.22;;;;;;;26.16;44.94;101031.97;5029344;28;20102;-81
2022/06/26 04:31:21;;;;;;;8.45;3.20;;;;;;;26.10;45.10;101035.63;5047035;28;20049;-80
2022/06/26 04:33:48;;;;;;;8.70;2.95;;;;;;;25.83;45.19;100996.16;5028587;28;20056;-80
2022/06/26 04:36:15;;;;;;;5.70;3.47;;;;;;;26.04;44.39;101027.53;5029343;28;20467;-80
2022/06/26 04:38:41;;;;;;;7.47;3.30;;;;;;;25.78;45.23;101003.13;5026277;28;20296;-80
2022/06/26 04:43:53;;;;;;;10.80;3.88;;;;;;;25.60;45.34;100992.25;5026375;28;20300;-81
2022/06/26 04:46:20;;;;;;;11.80;3.40;;;;;;;25.92;45.54;101041.06;5008881;28;20081;-81
2022/06/26 04:48:47;;;;;;;7.82;3.28;;;;;;;26.00;45.25;101040.78;5008278;28;20077;-79
2022/06/26 04:51:13;;;;;;;7.47;3.15;;;;;;;25.94;45.63;101033.50;5008687;28;20096;-81
2022/06/26 04:53:40;;;;;;;10.05;3.83;;;;;;;26.15;45.92;101054.81;5022258;28;20064;-81
2022/06/26 04:56:07;;;;;;;14.52;3.38;;;;;;;26.16;45.65;101061.06;5046223;28;20049;-80
2022/06/26 04:58:34;;;;;;;7.05;2.70;;;;;;;26.23;45.51;101059.94;5023446;28;20041;-81
2022/06/26 05:01:02;;;;;;;7.85;2.97;;;;;;;26.29;45.19;101065.50;5025296;28;20366;-81
2022/06/26 05:03:29;;;;;;;6.22;3.00;;;;;;;26.21;45.11;101043.03;5007462;28;20060;-80
2022/06/26 05:05:58;;;;;;;9.90;3.13;;;;;;;26.37;45.32;101062.50;5007881;28;20427;-80
2022/06/26 05:08:25;;;;;;;9.00;2.97;;;;;;;26.35;44.79;101059.16;5007912;28;20053;-79
2022/06/26 05:10:52;;;;;;;8.60;3.15;;;;;;;26.34;44.06;101043.91;5007781;28;20065;-79
2022/06/26 05:13:18;;;;;;;6.47;2.67;;;;;;;26.36;43.90;101055.38;5008054;28;20499;-80
2022/06/26 05:15:46;;;;;;;9.65;3.15;;;;;;;26.47;44.08;101061.94;5014388;28;20505;-79
2022/06/26 05:18:14;;;;;;;12.30;3.20;;;;;;;26.55;43.11;101072.53;5028002;28;20514;-79
2022/06/26 05:20:41;;;;;;;6.35;2.45;;;;;;;26.59;43.32;101077.28;5031625;28;20064;-80
2022/06/26 05:23:09;;;;;;;3.88;2.47;;;;;;;26.64;42.78;101071.13;5048104;28;20088;-80
2022/06/26 05:25:36;;;;;;;5.60;2.63;;;;;;;26.46;42.18;101027.59;5032084;28;20128;-80
2022/06/26 05:28:02;;;;;;;10.13;2.95;;;;;;;26.78;41.99;101079.97;5030895;28;20410;-80
2022/06/26 05:30:29;;;;;;;8.10;2.47;;;;;;;26.58;41.47;101032.06;5032348;28;20045;-82
2022/06/26 05:32:56;;;;;;;6.82;2.30;;;;;;;26.72;41.12;101031.84;5032552;28;20359;-79
2022/06/26 05:35:23;;;;;;;10.93;2.75;;;;;;;26.32;40.89;100962.47;5031697;28;20427;-79
2022/06/26 05:37:49;;;;;;;4.97;2.50;;;;;;;27.06;41.30;101082.88;5049419;28;20048;-80
2022/06/26 05:40:16;;;;;;;5.65;2.88;;;;;;;26.54;41.52;100997.38;5027867;28;20048;-79
2022/06/26 05:42:43;;;;;;;6.70;2.10;;;;;;;27.16;40.86;101089.59;5029670;28;20072;-80
2022/06/26 05:45:10;;;;;;;11.02;2.50;;;;;;;27.15;40.57;101069.72;5029772;28;20558;-80
2022/06/26 05:47:37;;;;;;;4.95;2.13;;;;;;;27.19;40.54;101072.84;5029877;28;20050;-80
2022/06/26 05:50:05;;;;;;;9.65;2.58;;;;;;;27.34;40.71;101083.28;5028196;28;20049;-80
2022/06/26 05:52:32;;;;;;;5.88;2.88;;;;;;;27.43;40.80;101093.59;5011810;28;20080;-80
2022/06/26 05:54:59;;;;;;;12.65;3.10;;;;;;;26.82;40.63;100986.66;5028082;28;20397;-80
2022/06/26 05:57:25;;;;;;;5.82;2.65;;;;;;;27.57;40.50;101082.44;5027902;28;20064;-81
2022/06/26 05:59:52;;;;;;;9.30;2.80;;;;;;;27.64;40.44;101104.97;5027880;28;20476;-80
2022/06/26 06:02:19;;;;;;;8.02;3.08;;;;;;;27.54;40.31;101072.84;5018853;28;20275;-81
2022/06/26 06:04:46;;;;;;;10.23;2.92;;;;;;;27.77;40.61;101104.75;5008090;28;20099;-81
2022/06/26 06:07:17;;;;;;;6.85;2.90;;;;;;;27.52;40.20;101058.59;5009988;28;20056;-79
2022/06/26 06:09:44;;;;;;;6.85;1.95;;;;;;;27.86;39.62;101097.84;5008865;28;20058;-80
2022/06/26 06:12:10;;;;;;;8.70;2.42;;;;;;;27.95;39.65;101105.69;5008561;28;20053;-80
2022/06/26 06:14:37;;;;;;;3.97;1.98;;;;;;;27.73;38.60;101059.91;5008631;28;20093;-81
2022/06/26 06:19:49;;;;;;;4.13;2.42;;;;;;;28.09;38.71;101104.38;5010345;28;20057;-80
2022/06/26 06:22:15;;;;;;;5.75;2.05;;;;;;;27.81;38.27;101051.34;5008619;28;20119;-80
2022/06/26 06:24:42;;;;;;;8.52;2.58;;;;;;;28.06;36.69;101091.19;5008806;28;20057;-81
2022/06/26 06:27:09;;;;;;;7.63;2.60;;;;;;;28.28;36.87;101121.41;4992152;28;20042;-80
2022/06/26 06:29:36;;;;;;;5.03;2.00;;;;;;;28.24;37.54;101107.41;5010800;28;20042;-80
2022/06/26 06:32:02;;;;;;;6.28;2.50;;;;;;;28.33;36.96;101114.13;5017606;28;20050;-81
2022/06/26 06:34:29;;;;;;;7.45;2.67;;;;;;;28.08;37.13;101083.59;5004860;28;20057;-81
2022/06/26 06:36:59;;;;;;;5.75;2.50;;;;;;;28.33;36.96;101119.59;5020398;28;20108;-79
2022/06/26 06:39:26;;;;;;;4.43;2.10;;;;;;;28.17;36.58;101087.59;5016881;28;20350;-80
2022/06/26 06:41:52;;;;;;;5.32;2.03;;;;;;;28.09;36.35;101074.34;5002321;28;20232;-81
2022/06/26 06:44:19;;;;;;;3.38;2.05;;;;;;;28.46;36.25;101123.97;4998713;28;20080;-80
2022/06/26 06:46:46;;;;;;;5.65;2.10;;;;;;;28.36;35.44;101095.63;4991073;28;20508;-80
2022/06/26 06:49:13;;;;;;;5.38;1.80;;;;;;;28.60;34.38;101113.59;4992164;28;20054;-80
2022/06/26 06:51:40;;;;;;;1.70;1.25;;;;;;;28.63;34.08;101107.66;5010211;28;20116;-81
2022/06/26 06:54:07;;;;;;;4.43;1.88;;;;;;;28.60;34.15;101118.25;5009575;28;20057;-81
2022/06/26 06:56:34;;;;;;;3.72;1.92;;;;;;;28.72;34.35;101106.19;5011011;28;20450;-82
2022/06/26 06:59:01;;;;;;;6.97;1.95;;;;;;;28.75;33.81;101118.53;5011084;28;20504;-81
2022/06/26 07:01:28;;;;;;;6.53;1.95;;;;;;;28.93;33.09;101106.53;5030266;28;20464;-81
2022/06/26 07:03:55;;;;;;;3.58;1.67;;;;;;;28.86;33.26;101120.38;5048005;28;20055;-80
2022/06/26 07:06:21;;;;;;;5.20;2.08;;;;;;;28.73;33.77;101104.28;5031414;28;20049;-81
2022/06/26 07:08:48;;;;;;;3.75;1.88;;;;;;;28.74;33.15;101084.91;5031106;28;20102;-81
2022/06/26 07:11:15;;;;;;;3.38;1.85;;;;;;;28.87;33.57;101115.72;5031418;28;20458;-81
2022/06/26 07:13:42;;;;;;;9.65;1.70;;;;;;;28.92;34.03;101132.22;5038829;28;20107;-81
2022/06/26 07:16:08;;;;;;;5.30;1.90;;;;;;;28.63;33.79;101065.84;5062921;28;20083;-81
2022/06/26 07:18:36;;;;;;;4.80;1.83;;;;;;;29.03;34.00;101134.06;5073385;28;20053;-82
2022/06/26 07:21:07;;;;;;;4.15;2.05;;;;;;;29.15;33.22;101121.19;5056620;28;20033;-82
2022/06/26 07:23:34;;;;;;;5.10;1.77;;;;;;;29.23;32.91;101127.31;5031494;28;20630;-80
2022/06/26 07:26:01;;;;;;;3.53;1.85;;;;;;;28.92;33.96;101089.31;5048722;28;20048;-78
2022/06/26 07:28:28;;;;;;;5.63;1.98;;;;;;;29.13;34.38;101123.34;5031119;28;20380;-80
2022/06/26 07:30:55;;;;;;;3.08;2.10;;;;;;;29.13;34.57;101128.81;5030809;28;20041;-81
2022/06/26 07:36:08;;;;;;;3.33;2.17;;;;;;;29.19;35.13;101116.03;5048763;28;20115;-82
2022/06/26 07:38:35;;;;;;;5.63;2.20;;;;;;;29.10;35.48;101101.13;5030516;28;20053;-81
2022/06/26 07:41:01;;;;;;;4.15;2.42;;;;;;;29.29;35.50;101131.78;5047500;28;20076;-83
2022/06/26 07:43:28;;;;;;;4.95;2.20;;;;;;;29.26;35.01;101124.09;5048393;28;20058;-82
2022/06/26 07:45:59;;;;;;;5.00;2.33;;;;;;;29.29;35.26;101121.66;5031223;28;20049;-80
2022/06/26 07:48:26;;;;;;;4.78;2.22;;;;;;;29.32;36.16;101125.81;5030636;28;20080;-81
2022/06/26 07:50:53;;;;;;;6.03;2.60;;;;;;;29.50;36.39;101138.41;5030583;28;20099;-80
2022/06/26 07:53:21;;;;;;;7.47;2.45;;;;;;;29.59;35.94;101143.22;5030660;28;20056;-81
2022/06/26 07:55:47;;;;;;;4.05;2.20;;;;;;;29.58;35.47;101136.06;5048472;28;20095;-81
2022/06/26 07:58:14;;;;;;;5.32;2.05;;;;;;;29.66;35.82;101153.13;5029810;28;20063;-81
2022/06/26 08:00:41;;;;;;;8.10;2.45;;;;;;;29.70;34.94;101121.50;5030834;28;20048;-81
2022/06/26 08:03:11;;;;;;;2.70;1.80;;;;;;;29.57;34.53;101112.53;5047939;28;20114;-81
2022/06/26 08:05:38;;;;;;;8.27;2.08;;;;;;;29.83;34.73;101153.97;5047213;28;20045;-80
2022/06/26 08:08:05;;;;;;;4.20;1.95;;;;;;;29.28;35.50;101070.81;5030945;28;20132;-82
2022/06/26 08:10:34;;;;;;;4.30;2.25;;;;;;;29.95;34.87;101159.34;5030979;28;20127;-81
2022/06/26 08:13:01;;;;;;;6.35;2.47;;;;;;;29.99;35.15;101153.13;5031628;28;20057;-81
2022/06/26 08:15:28;;;;;;;5.40;2.08;;;;;;;30.14;34.86;101159.88;5030576;28;20518;-81
2022/06/26 08:17:55;;;;;;;2.60;1.92;;;;;;;29.45;34.90;101054.38;5030743;28;20456;-81
2022/06/26 08:20:23;;;;;;;3.83;2.60;;;;;;;30.23;34.38;101142.75;5030725;28;20047;-82
2022/06/26 08:22:50;;;;;;;6.70;2.47;;;;;;;30.32;33.85;101145.91;5048385;28;20541;-82
2022/06/26 08:25:17;;;;;;;2.53;1.90;;;;;;;29.83;34.79;101085.56;5030688;28;20057;-82
2022/06/26 08:27:44;;;;;;;2.10;1.90;;;;;;;29.46;33.62;101000.50;5030439;28;20126;-81
2022/06/26 08:30:11;;;;;;;5.25;2.00;;;;;;;30.42;34.09;101151.53;5048308;28;20394;-80
2022/06/26 08:32:42;;;;;;;4.30;2.30;;;;;;;30.31;33.64;101154.38;5047602;28;20080;-81
2022/06/26 08:35:10;;;;;;;8.48;2.03;;;;;;;29.79;33.99;101066.09;5030562;28;20338;-81
2022/06/26 08:37:37;;;;;;;5.30;1.88;;;;;;;30.33;33.86;101125.66;5030267;28;20052;-81
2022/06/26 08:40:06;;;;;;;5.05;2.65;;;;;;;30.44;33.61;101138.41;5026732;28;20111;-81
2022/06/26 08:42:34;;;;;;;4.45;1.85;;;;;;;30.61;33.72;101142.94;5027484;28;20048;-80
2022/06/26 08:45:01;;;;;;;6.25;2.05;;;;;;;30.33;33.97;101070.88;5028997;28;20049;-80
2022/06/26 08:47:35;;;;;;;3.65;1.83;;;;;;;30.69;33.29;101119.75;5032443;28;20515;-81
2022/06/26 08:50:03;;;;;;;3.80;1.98;;;;;;;30.59;32.70;101079.38;5015202;28;20079;-81
2022/06/26 08:52:30;;;;;;;3.95;2.33;;;;;;;30.65;33.20;101094.78;5034056;28;20053;-81
2022/06/26 08:54:57;;;;;;;2.22;1.92;;;;;;;30.61;32.96;101072.56;5044218;28;20045;-80
2022/06/26 08:57:25;;;;;;;3.97;1.80;;;;;;;31.01;33.00;101131.59;5062639;28;20330;-81
2022/06/26 08:59:51;;;;;;;5.45;2.42;;;;;;;31.08;32.29;101120.44;5062776;28;20044;-81
2022/06/26 09:02:18;;;;;;;2.28;1.67;;;;;;;31.19;32.39;101137.78;5045928;28;20088;-79
2022/06/26 09:04:45;;;;;;;3.05;2.75;;;;;;;31.23;31.70;101122.47;5062128;28;20071;-82
2022/06/26 09:07:11;;;;;;;2.20;2.00;;;;;;;31.29;31.01;101086.59;5035055;28;20049;-81
2022/06/26 09:09:39;;;;;;;11.00;2.10;;;;;;;30.71;31.61;101011.53;5051199;28;20126;-81
2022/06/26 09:12:07;;;;;;;3.55;2.20;;;;;;;30.79;31.13;101008.31;5033722;28;20060;-81
2022/06/26 09:14:34;;;;;;;7.57;2.08;;;;;;;31.01;31.64;101043.88;5034014;28;20073;-79
2022/06/26 09:17:01;;;;;;;3.83;1.95;;;;;;;31.63;31.25;101141.19;5033545;28;20053;-79
2022/06/26 09:19:33;;;;;;;4.32;2.33;;;;;;;31.49;31.14;101124.34;5033330;28;20051;-81
2022/06/26 09:22:27;;;;;;;2.63;2.17;;;;;;;31.63;31.89;101121.13;5033878;28;20041;-80
2022/06/26 09:24:58;;;;;;;3.63;2.20;;;;;;;31.81;31.32;101128.94;5031373;28;20186;-81
2022/06/26 09:27:25;;;;;;;1.70;1.60;;;;;;;31.94;30.57;101133.13;5051477;28;20487;-82
2022/06/26 09:29:54;;;;;;;4.20;1.95;;;;;;;31.92;30.00;101103.19;5050778;28;20392;-80
2022/06/26 09:32:22;;;;;;;4.95;2.08;;;;;;;31.98;30.30;101123.28;5050283;28;20672;-82
2022/06/26 09:34:53;;;;;;;4.55;2.17;;;;;;;31.84;30.48;101122.09;5050439;28;20103;-81
2022/06/26 09:37:21;;;;;;;7.53;2.58;;;;;;;31.89;30.72;101108.38;5033558;28;20525;-81
2022/06/26 09:40:12;;;;;;;4.38;2.20;;;;;;;31.69;30.58;101062.44;5050727;28;20138;-81
2022/06/26 09:42:39;;;;;;;5.38;2.33;;;;;;;32.18;30.56;101119.81;5032750;28;20486;-81
2022/06/26 09:45:10;;;;;;;2.35;2.15;;;;;;;32.15;30.99;101101.13;5033286;28;20092;-82
2022/06/26 09:47:39;;;;;;;4.05;1.75;;;;;;;32.50;30.63;101114.19;5032798;28;20057;-82
2022/06/26 09:50:07;;;;;;;2.42;1.70;;;;;;;31.89;30.67;101034.25;5033097;28;20291;-79
2022/06/26 09:52:35;;;;;;;6.22;1.95;;;;;;;32.22;29.10;101101.72;5032696;28;20067;-80
2022/06/26 09:55:04;;;;;;;2.95;2.40;;;;;;;32.32;29.44;101095.41;5051112;28;20052;-80
2022/06/26 09:57:32;;;;;;;2.42;1.90;;;;;;;32.53;29.63;101108.16;5050491;28;20083;-81
2022/06/26 10:00:00;;;;;;;3.25;1.90;;;;;;;32.51;29.53;101065.56;5033235;28;20041;-82
2022/06/26 10:08:05;;;;;;;3.72;1.88;;;;;;;32.80;29.09;101038.38;5051203;28;20281;-82
2022/06/26 10:10:35;;;;;;;2.00;1.70;;;;;;;33.33;27.95;101099.44;5050187;28;20048;-82
2022/06/26 10:13:10;;;;;;;2.40;1.77;;;;;;;33.26;27.07;101087.88;5032218;28;20529;-82
2022/06/26 10:15:52;;;;;;;4.95;2.13;;;;;;;33.66;27.03;101107.38;5050233;28;20115;-82
2022/06/26 10:18:25;;;;;;;6.50;1.92;;;;;;;33.92;27.18;101108.94;5032859;28;20053;-82
2022/06/26 10:20:56;;;;;;;7.18;1.92;;;;;;;33.84;26.74;101087.50;5032539;28;20411;-81
2022/06/26 10:23:37;;;;;;;3.80;1.85;;;;;;;33.96;26.94;101100.94;5050984;28;20395;-81
2022/06/26 10:26:16;;;;;;;4.30;2.08;;;;;;;33.03;27.10;100961.91;5032488;28;20123;-81
2022/06/26 10:29:09;;;;;;;6.47;2.35;;;;;;;34.03;27.16;101090.44;5032171;28;20498;-81
2022/06/26 10:31:42;;;;;;;6.65;2.13;;;;;;;34.13;27.66;101073.06;5032810;28;20106;-79
2022/06/26 10:34:20;;;;;;;9.52;2.58;;;;;;;33.88;28.12;101033.50;5032938;28;20083;-78
2022/06/26 10:37:05;;;;;;;2.42;1.88;;;;;;;34.37;27.67;101070.47;5033457;28;20746;-79
2022/06/26 10:39:41;;;;;;;6.53;2.50;;;;;;;34.66;27.64;101076.94;5050099;28;20246;-81
2022/06/26 10:45:40;;;;;;;6.55;2.17;;;;;;;35.06;27.04;101060.34;5050107;28;20765;-83
2022/06/26 10:48:18;;;;;;;5.82;2.55;;;;;;;35.25;26.71;101077.03;5049609;28;20045;-81
2022/06/26 10:51:01;;;;;;;5.28;2.28;;;;;;;35.39;26.48;101069.72;5050784;28;20064;-81
2022/06/26 10:53:47;;;;;;;8.27;2.58;;;;;;;35.45;26.23;101053.91;5035120;28;20071;-80
2022/06/26 10:56:13;;;;;;;6.65;1.95;;;;;;;35.24;27.24;101009.94;5050262;28;20056;-82
2022/06/26 10:58:44;;;;;;;4.75;2.50;;;;;;;35.51;26.88;101048.03;5032214;28;20103;-82
2022/06/26 11:01:12;;;;;;;6.28;2.38;;;;;;;34.95;27.19;100946.50;5050014;28;20049;-81
2022/06/26 11:03:41;;;;;;;4.57;2.30;;;;;;;35.72;27.15;101045.06;5031850;28;20049;-81
2022/06/26 11:06:11;;;;;;;5.85;2.03;;;;;;;35.82;27.50;101049.63;5032408;28;20056;-82
2022/06/26 11:08:57;;;;;;;;;;;;;;;36.01;26.31;101044.16;5032900;28;20113;-82
2022/06/26 11:11:32;;;;;;;8.65;2.67;;;;;;;36.04;26.72;101015.91;5051172;28;19921;-81
2022/06/26 11:14:08;;;;;;;8.30;2.95;;;;;;;36.21;26.08;101038.34;5037066;28;20151;-82
2022/06/26 11:16:41;;;;;;;11.68;2.53;;;;;;;35.50;26.57;100947.00;5041193;28;20041;-82
2022/06/26 11:19:28;;;;;;;5.55;2.53;;;;;;;36.25;26.44;101038.59;5043583;28;20256;-83
2022/06/26 11:22:12;;;;;;;4.07;2.40;;;;;;;36.55;26.07;101006.88;5047226;28;20110;-82
2022/06/26 11:24:51;;;;;;;5.68;2.03;;;;;;;36.52;26.23;101021.31;5045913;28;20063;-82
2022/06/26 11:27:26;;;;;;;4.95;2.55;;;;;;;36.47;26.24;101018.63;5047604;28;20068;-82
2022/06/26 11:29:53;;;;;;;9.10;2.30;;;;;;;36.86;26.47;101025.75;5050754;28;20562;-80
2022/06/26 11:32:27;;;;;;;4.95;1.95;;;;;;;36.48;26.12;100951.16;5031977;28;20057;-80
2022/06/26 11:34:56;;;;;;;10.15;2.97;;;;;;;36.85;25.94;100990.91;5031307;28;20447;-82
2022/06/26 11:37:38;;;;;;;8.70;2.55;;;;;;;36.99;25.68;101009.19;5031469;28;20179;-82
2022/06/26 11:40:17;;;;;;;11.32;2.28;;;;;;;36.66;25.47;100933.72;5027140;28;20193;-84
2022/06/26 11:42:45;;;;;;;6.18;2.85;;;;;;;36.88;25.37;100933.03;5028581;28;20083;-82
2022/06/26 11:45:24;;;;;;;5.07;1.80;;;;;;;37.07;25.72;100963.44;5027589;28;20328;-82
2022/06/26 11:47:52;;;;;;;9.77;2.83;;;;;;;37.56;25.30;100999.84;5026863;28;20054;-83
2022/06/26 11:50:21;;;;;;;7.22;2.53;;;;;;;37.18;25.10;100923.34;5028262;28;20052;-84